createdAt,value
2023-02-08T00:01:10.449Z,30.00
2023-02-08T00:03:40.424Z,27.47
2023-02-08T00:06:09.009Z,28.87
2023-02-08T00:08:37.708Z,28.30
2023-02-08T00:11:06.839Z,29.53
2023-02-08T00:13:35.561Z,33.93
2023-02-08T00:16:04.315Z,27.93
2023-02-08T00:18:32.825Z,28.33
2023-02-08T00:21:02.865Z,29.27
2023-02-08T00:23:32.118Z,29.83
2023-02-08T00:26:00.737Z,27.23
2023-02-08T00:28:29.138Z,28.90
2023-02-08T00:30:57.613Z,27.83
2023-02-08T00:33:26.212Z,28.07
2023-02-08T00:35:59.845Z,25.57
2023-02-08T00:38:29.718Z,25.07
2023-02-08T00:40:58.097Z,28.33
2023-02-08T00:43:26.636Z,27.80
2023-02-08T00:45:57.914Z,29.37
2023-02-08T00:48:26.467Z,27.47
2023-02-08T00:51:01.848Z,27.47
2023-02-08T00:53:31.894Z,29.67
2023-02-08T00:56:00.229Z,29.07
2023-02-08T00:58:28.579Z,29.10
2023-02-08T01:00:57.156Z,30.53
2023-02-08T01:03:25.646Z,27.23
2023-02-08T01:05:54.209Z,28.43
2023-02-08T01:08:22.688Z,30.93
2023-02-08T01:10:53.438Z,27.70
2023-02-08T01:13:21.902Z,28.73
2023-02-08T01:15:51.069Z,26.47
2023-02-08T01:18:19.435Z,32.20
2023-02-08T01:20:47.822Z,30.50
2023-02-08T01:23:16.293Z,26.43
2023-02-08T01:25:44.916Z,28.93
2023-02-08T01:28:14.877Z,30.17
2023-02-08T01:30:43.559Z,31.10
2023-02-08T01:33:12.475Z,26.60
2023-02-08T01:35:40.988Z,31.93
2023-02-08T01:38:09.510Z,32.17
2023-02-08T01:40:38.615Z,27.23
2023-02-08T01:43:08.470Z,27.20
2023-02-08T01:45:38.552Z,28.67
2023-02-08T01:48:17.934Z,27.30
2023-02-08T01:50:46.865Z,30.57
2023-02-08T01:53:15.275Z,28.23
2023-02-08T01:55:45.196Z,28.53
2023-02-08T01:58:13.943Z,29.33
2023-02-08T02:00:44.022Z,28.50
2023-02-08T02:03:12.767Z,29.03
2023-02-08T02:05:41.743Z,24.47
2023-02-08T02:08:10.263Z,29.80
2023-02-08T02:10:39.723Z,23.43
2023-02-08T02:13:09.151Z,29.87
2023-02-08T02:15:38.036Z,27.90
2023-02-08T02:18:08.526Z,32.00
2023-02-08T02:20:57.083Z,23.80
2023-02-08T02:23:42.575Z,24.77
2023-02-08T02:26:44.082Z,27.67
2023-02-08T02:29:36.377Z,24.13
2023-02-08T02:32:12.181Z,25.17
2023-02-08T02:34:42.458Z,25.03
2023-02-08T02:37:13.595Z,26.83
2023-02-08T02:39:42.950Z,27.90
2023-02-08T02:42:30.112Z,29.20
2023-02-08T02:45:01.093Z,26.37
2023-02-08T02:47:32.234Z,26.37
2023-02-08T02:50:02.865Z,28.43
2023-02-08T02:52:34.714Z,28.07
2023-02-08T02:55:03.395Z,27.90
2023-02-08T02:57:33.441Z,24.97
2023-02-08T03:00:02.045Z,25.20
2023-02-08T03:02:32.729Z,27.47
2023-02-08T03:05:01.308Z,26.27
2023-02-08T03:07:33.637Z,25.87
2023-02-08T03:10:04.477Z,23.97
2023-02-08T03:12:36.378Z,25.60
2023-02-08T03:15:07.071Z,24.50
2023-02-08T03:17:39.577Z,26.33
2023-02-08T03:20:09.599Z,25.70
2023-02-08T03:22:44.941Z,28.40
2023-02-08T03:25:14.218Z,31.07
2023-02-08T03:27:44.078Z,26.13
2023-02-08T03:30:12.940Z,25.50
2023-02-08T03:32:44.118Z,25.80
2023-02-08T03:35:13.249Z,24.20
2023-02-08T03:37:42.951Z,26.27
2023-02-08T03:40:13.055Z,24.53
2023-02-08T03:42:41.432Z,26.73
2023-02-08T03:45:11.044Z,25.47
2023-02-08T03:47:39.741Z,25.83
2023-02-08T03:50:10.881Z,28.13
2023-02-08T03:52:39.699Z,28.90
2023-02-08T03:55:09.230Z,29.50
2023-02-08T03:57:38.432Z,31.53
2023-02-08T04:00:08.041Z,29.07
2023-02-08T04:02:36.807Z,26.33
2023-02-08T04:05:05.495Z,28.33
2023-02-08T04:07:35.231Z,25.73
2023-02-08T04:10:04.367Z,29.23
2023-02-08T04:12:32.884Z,29.10
2023-02-08T04:15:01.354Z,26.40
2023-02-08T04:17:30.075Z,24.70
2023-02-08T04:19:58.619Z,26.67
2023-02-08T04:22:26.989Z,29.67
2023-02-08T04:24:56.739Z,28.47
2023-02-08T04:27:25.211Z,26.83
2023-02-08T04:29:53.596Z,26.67
2023-02-08T04:32:22.077Z,24.50
2023-02-08T04:34:50.529Z,25.53
2023-02-08T04:37:19.217Z,25.63
2023-02-08T04:39:47.617Z,24.20
2023-02-08T04:42:17.812Z,24.33
2023-02-08T04:44:46.519Z,29.70
2023-02-08T04:47:14.833Z,24.57
2023-02-08T04:49:43.720Z,28.97
2023-02-08T04:52:12.140Z,30.27
2023-02-08T04:54:40.989Z,25.67
2023-02-08T04:57:09.550Z,27.43
2023-02-08T04:59:39.477Z,29.90
2023-02-08T05:02:07.989Z,24.37
2023-02-08T05:04:36.760Z,31.77
2023-02-08T05:07:05.375Z,25.83
2023-02-08T05:09:33.857Z,25.97
2023-02-08T05:12:02.297Z,26.73
2023-02-08T05:14:30.732Z,27.13
2023-02-08T05:17:00.524Z,25.97
2023-02-08T05:19:28.970Z,27.20
2023-02-08T05:21:57.463Z,25.63
2023-02-08T05:24:26.228Z,25.20
2023-02-08T05:26:54.679Z,25.57
2023-02-08T05:29:23.034Z,23.97
2023-02-08T05:31:51.620Z,27.40
2023-02-08T05:34:21.405Z,24.80
2023-02-08T05:36:49.848Z,28.83
2023-02-08T05:39:18.244Z,28.13
2023-02-08T05:41:46.623Z,30.43
2023-02-08T05:44:15.145Z,27.10
2023-02-08T05:46:43.743Z,24.73
2023-02-08T05:49:12.107Z,23.63
2023-02-08T05:51:42.004Z,25.70
2023-02-08T05:54:10.461Z,28.33
2023-02-08T05:56:38.943Z,27.87
2023-02-08T05:59:07.522Z,21.87
2023-02-08T06:01:35.924Z,27.90
2023-02-08T06:04:04.484Z,25.73
2023-02-08T06:06:32.957Z,28.47
2023-02-08T06:09:02.835Z,24.83
2023-02-08T06:11:31.275Z,23.80
2023-02-08T06:13:59.688Z,27.03
2023-02-08T06:16:28.221Z,27.00
2023-02-08T06:18:56.719Z,26.30
2023-02-08T06:21:25.258Z,26.17
2023-02-08T06:23:53.723Z,25.73
2023-02-08T06:26:23.536Z,24.70
2023-02-08T06:28:52.057Z,22.50
2023-02-08T06:31:20.592Z,25.53
2023-02-08T06:33:49.000Z,26.07
2023-02-08T06:36:17.613Z,26.37
2023-02-08T06:38:46.010Z,24.03
2023-02-08T06:41:14.434Z,27.33
2023-02-08T06:43:44.395Z,28.80
2023-02-08T06:46:13.273Z,24.77
2023-02-08T06:48:42.076Z,22.13
2023-02-08T06:51:10.448Z,24.47
2023-02-08T06:53:39.050Z,28.70
2023-02-08T06:56:07.817Z,26.67
2023-02-08T06:58:36.201Z,24.13
2023-02-08T07:01:06.062Z,25.77
2023-02-08T07:03:35.086Z,25.57
2023-02-08T07:06:05.256Z,24.50
2023-02-08T07:08:34.531Z,23.73
2023-02-08T07:11:02.927Z,26.27
2023-02-08T07:13:31.515Z,24.33
2023-02-08T07:15:59.981Z,21.57
2023-02-08T07:18:29.728Z,25.93
2023-02-08T07:20:58.110Z,25.03
2023-02-08T07:23:26.497Z,25.20
2023-02-08T07:25:58.813Z,25.17
2023-02-08T07:28:27.279Z,26.80
2023-02-08T07:30:55.771Z,24.13
2023-02-08T07:33:24.544Z,27.07
2023-02-08T07:35:54.480Z,27.73
2023-02-08T07:38:22.939Z,26.63
2023-02-08T07:40:51.600Z,24.57
2023-02-08T07:43:20.002Z,26.23
2023-02-08T07:45:48.454Z,25.77
2023-02-08T07:48:16.855Z,27.03
2023-02-08T07:50:45.503Z,23.57
2023-02-08T07:53:18.274Z,24.93
2023-02-08T07:55:48.001Z,23.77
2023-02-08T07:58:16.433Z,25.03
2023-02-08T08:00:48.480Z,25.43
2023-02-08T08:03:17.203Z,28.77
2023-02-08T08:05:45.608Z,30.53
2023-02-08T08:08:14.128Z,23.80
2023-02-08T08:10:44.967Z,25.60
2023-02-08T08:13:13.913Z,28.30
2023-02-08T08:15:42.346Z,29.13
2023-02-08T08:18:13.928Z,24.37
2023-02-08T08:20:42.551Z,26.67
2023-02-08T08:23:11.053Z,29.73
2023-02-08T08:25:39.416Z,31.70
2023-02-08T08:28:09.244Z,31.07
2023-02-08T08:30:37.638Z,32.07
2023-02-08T08:33:07.045Z,30.87
2023-02-08T08:35:38.593Z,27.53
2023-02-08T08:38:07.148Z,28.70
2023-02-08T08:40:35.540Z,29.00
2023-02-08T08:43:04.072Z,31.30
2023-02-08T08:45:36.282Z,24.53
2023-02-08T08:48:05.334Z,27.63
2023-02-08T08:50:33.758Z,31.60
2023-02-08T08:53:02.164Z,30.10
2023-02-08T08:55:30.631Z,30.27
2023-02-08T08:57:59.225Z,29.93
2023-02-08T09:00:27.608Z,29.37
2023-02-08T09:02:57.582Z,29.20
2023-02-08T09:05:26.120Z,34.43
2023-02-08T09:07:54.628Z,29.00
2023-02-08T09:10:23.129Z,28.30
2023-02-08T09:12:53.118Z,27.23
2023-02-08T09:15:21.648Z,26.00
2023-02-08T09:17:50.033Z,32.60
2023-02-08T09:20:20.145Z,28.27
2023-02-08T09:22:48.560Z,26.53
2023-02-08T09:25:17.202Z,32.93
2023-02-08T09:27:45.853Z,29.13
2023-02-08T09:30:14.629Z,28.63
2023-02-08T09:32:43.177Z,31.67
2023-02-08T09:35:15.440Z,32.53
2023-02-08T09:37:45.327Z,27.87
2023-02-08T09:40:16.852Z,29.97
2023-02-08T09:42:45.452Z,29.23
2023-02-08T09:45:26.326Z,29.57
2023-02-08T09:47:56.866Z,31.97
2023-02-08T09:50:26.654Z,28.27
2023-02-08T09:53:00.273Z,29.00
2023-02-08T09:55:30.672Z,29.77
2023-02-08T09:57:59.948Z,31.53
2023-02-08T10:00:31.954Z,27.63
2023-02-08T10:03:00.544Z,24.97
2023-02-08T10:05:29.039Z,30.47
2023-02-08T10:08:00.212Z,27.23
2023-02-08T10:10:33.088Z,27.80
2023-02-08T10:13:04.198Z,26.97
2023-02-08T10:15:35.424Z,26.43
2023-02-08T10:18:08.375Z,25.23
2023-02-08T10:20:47.199Z,28.90
2023-02-08T10:23:22.607Z,23.70
2023-02-08T10:26:03.674Z,25.03
2023-02-08T10:28:40.137Z,25.43
2023-02-08T10:31:10.959Z,23.07
2023-02-08T10:33:39.689Z,20.13
2023-02-08T10:36:10.397Z,19.27
2023-02-08T10:38:46.388Z,19.53
2023-02-08T10:41:17.814Z,19.67
2023-02-08T10:43:47.046Z,19.30
2023-02-08T10:46:19.006Z,18.53
2023-02-08T10:48:51.437Z,17.67
2023-02-08T10:51:22.727Z,19.40
2023-02-08T10:53:52.802Z,18.97
2023-02-08T10:56:29.108Z,17.23
2023-02-08T10:58:57.495Z,17.50
2023-02-08T11:01:25.971Z,15.97
2023-02-08T11:04:03.869Z,18.23
2023-02-08T11:06:32.377Z,16.20
2023-02-08T11:09:02.602Z,21.70
2023-02-08T11:11:33.977Z,17.33
2023-02-08T11:14:07.712Z,17.63
2023-02-08T11:16:36.225Z,20.83
2023-02-08T11:19:05.581Z,21.50
2023-02-08T11:21:34.970Z,18.43
2023-02-08T11:24:19.512Z,18.83
2023-02-08T11:26:50.200Z,17.40
2023-02-08T11:29:19.358Z,17.50
2023-02-08T11:31:58.212Z,17.30
2023-02-08T11:34:26.772Z,17.10
2023-02-08T11:36:55.226Z,17.73
2023-02-08T11:39:26.397Z,16.20
2023-02-08T11:41:55.886Z,17.87
2023-02-08T11:44:24.614Z,18.00
2023-02-08T11:46:56.172Z,15.13
2023-02-08T11:49:25.306Z,16.53
2023-02-08T11:51:54.031Z,14.53
2023-02-08T11:54:37.944Z,15.70
2023-02-08T11:57:11.245Z,16.40
2023-02-08T11:59:39.737Z,16.20
2023-02-08T12:02:28.877Z,19.70
2023-02-08T12:04:57.425Z,17.50
2023-02-08T12:07:26.706Z,16.33
2023-02-08T12:10:05.693Z,18.47
2023-02-08T12:12:36.365Z,16.50
2023-02-08T12:15:06.956Z,16.10
2023-02-08T12:17:44.746Z,14.23
2023-02-08T12:20:23.434Z,17.13
2023-02-08T12:22:53.817Z,14.67
2023-02-08T12:25:24.615Z,16.17
2023-02-08T12:27:54.970Z,15.97
2023-02-08T12:30:24.365Z,14.40
2023-02-08T12:33:01.691Z,13.97
2023-02-08T12:35:45.647Z,17.47
2023-02-08T12:38:38.673Z,16.93
2023-02-08T12:41:10.411Z,17.40
2023-02-08T12:43:42.394Z,17.47
2023-02-08T12:46:13.508Z,14.17
2023-02-08T12:48:47.257Z,13.10
2023-02-08T12:51:18.638Z,15.10
2023-02-08T12:53:47.567Z,15.57
2023-02-08T12:56:18.037Z,14.67
2023-02-08T12:58:47.304Z,14.67
2023-02-08T13:01:17.081Z,11.30
2023-02-08T13:03:46.775Z,12.67
2023-02-08T13:06:16.954Z,13.57
2023-02-08T13:08:47.149Z,12.83
2023-02-08T13:11:20.551Z,14.03
2023-02-08T13:13:52.046Z,15.53
2023-02-08T13:16:20.891Z,17.70
2023-02-08T13:18:56.571Z,12.97
2023-02-08T13:21:26.143Z,14.10
2023-02-08T13:23:54.564Z,12.83
2023-02-08T13:26:26.645Z,11.93
2023-02-08T13:28:55.740Z,13.27
2023-02-08T13:31:24.924Z,14.87
2023-02-08T13:34:01.575Z,13.83
2023-02-08T13:36:31.712Z,18.07
2023-02-08T13:39:00.865Z,12.13
2023-02-08T13:41:31.360Z,13.03
2023-02-08T13:44:00.253Z,17.10
2023-02-08T13:46:29.409Z,12.70
2023-02-08T13:49:00.457Z,13.10
2023-02-08T13:51:52.951Z,12.87
2023-02-08T13:54:21.569Z,12.07
2023-02-08T13:56:51.486Z,12.47
2023-02-08T13:59:27.046Z,12.03
2023-02-08T14:02:15.073Z,14.20
2023-02-08T14:04:43.693Z,11.93
2023-02-08T14:07:16.355Z,15.13
2023-02-08T14:09:53.901Z,13.10
2023-02-08T14:12:25.366Z,14.63
2023-02-08T14:15:10.579Z,12.27
2023-02-08T14:17:39.089Z,14.47
2023-02-08T14:20:08.445Z,13.07
2023-02-08T14:22:37.592Z,12.83
2023-02-08T14:25:06.325Z,12.30
2023-02-08T14:27:37.512Z,15.07
2023-02-08T14:30:07.283Z,13.57
2023-02-08T14:32:36.078Z,15.13
2023-02-08T14:35:06.545Z,13.70
2023-02-08T14:37:35.172Z,15.10
2023-02-08T14:40:24.921Z,14.70
2023-02-08T14:42:58.334Z,15.47
2023-02-08T14:45:30.229Z,14.03
2023-02-08T14:48:08.042Z,14.27
2023-02-08T14:50:41.203Z,15.20
2023-02-08T14:53:17.829Z,13.50
2023-02-08T14:55:50.723Z,13.00
2023-02-08T14:58:24.337Z,13.43
2023-02-08T15:00:53.477Z,14.57
2023-02-08T15:03:22.046Z,14.90
2023-02-08T15:05:59.826Z,12.93
2023-02-08T15:08:35.217Z,13.77
2023-02-08T15:11:03.773Z,13.80
2023-02-08T15:13:36.684Z,14.87
2023-02-08T15:16:05.529Z,12.53
2023-02-08T15:18:33.986Z,15.27
2023-02-08T15:21:05.916Z,13.00
2023-02-08T15:23:35.653Z,10.90
2023-02-08T15:26:05.118Z,11.37
2023-02-08T15:28:33.994Z,15.30
2023-02-08T15:31:05.243Z,10.43
2023-02-08T15:33:33.980Z,13.97
2023-02-08T15:36:05.899Z,11.67
2023-02-08T15:38:34.826Z,12.20
2023-02-08T15:41:04.481Z,11.70
2023-02-08T15:43:33.143Z,11.40
2023-02-08T15:46:03.592Z,13.40
2023-02-08T15:48:44.436Z,11.57
2023-02-08T15:51:14.753Z,12.47
2023-02-08T15:53:44.702Z,13.63
2023-02-08T15:56:15.095Z,12.63
2023-02-08T15:58:45.956Z,16.17
2023-02-08T16:01:18.533Z,12.80
2023-02-08T16:03:50.490Z,13.23
2023-02-08T16:06:22.523Z,11.43
2023-02-08T16:08:51.466Z,11.50
2023-02-08T16:11:23.186Z,12.17
2023-02-08T16:13:52.298Z,16.60
2023-02-08T16:16:21.334Z,16.87
2023-02-08T16:18:51.917Z,12.93
2023-02-08T16:21:21.807Z,14.30
2023-02-08T16:23:50.924Z,11.67
2023-02-08T16:26:21.080Z,10.73
2023-02-08T16:28:53.521Z,13.00
2023-02-08T16:31:22.334Z,11.70
2023-02-08T16:33:59.219Z,14.20
2023-02-08T16:36:28.518Z,14.70
2023-02-08T16:39:11.818Z,16.80
2023-02-08T16:42:06.401Z,13.27
2023-02-08T16:44:42.535Z,12.33
2023-02-08T16:47:26.232Z,14.73
2023-02-08T16:49:56.660Z,12.27
2023-02-08T16:52:25.155Z,15.77
2023-02-08T16:54:53.597Z,13.70
2023-02-08T16:57:22.158Z,16.27
2023-02-08T16:59:50.691Z,11.23
2023-02-08T17:02:19.024Z,19.27
2023-02-08T17:04:47.410Z,17.63
2023-02-08T17:07:18.861Z,15.63
2023-02-08T17:09:47.273Z,15.50
2023-02-08T17:12:22.601Z,13.67
2023-02-08T17:14:51.468Z,21.40
2023-02-08T17:17:20.102Z,16.50
2023-02-08T17:19:48.512Z,13.27
2023-02-08T17:22:18.232Z,15.33
2023-02-08T17:24:46.675Z,16.97
2023-02-08T17:27:15.100Z,16.83
2023-02-08T17:29:43.784Z,16.67
2023-02-08T17:32:12.183Z,16.63
2023-02-08T17:34:40.985Z,15.77
2023-02-08T17:37:09.415Z,19.97
2023-02-08T17:39:39.388Z,19.80
2023-02-08T17:42:07.851Z,17.23
2023-02-08T17:44:37.712Z,20.57
2023-02-08T17:47:06.542Z,13.77
2023-02-08T17:49:35.044Z,14.63
2023-02-08T17:52:03.546Z,14.03
2023-02-08T17:54:32.081Z,14.30
2023-02-08T17:57:01.808Z,19.10
2023-02-08T17:59:30.404Z,22.77
2023-02-08T18:01:58.871Z,17.50
2023-02-08T18:04:27.270Z,18.37
2023-02-08T18:06:56.229Z,12.37
2023-02-08T18:09:24.623Z,14.60
2023-02-08T18:11:53.095Z,14.50
2023-02-08T18:14:23.214Z,13.43
2023-02-08T18:16:51.614Z,15.47
2023-02-08T18:19:20.795Z,18.90
2023-02-08T18:21:49.337Z,22.00
2023-02-08T18:24:18.830Z,16.47
2023-02-08T18:26:47.294Z,16.43
2023-02-08T18:29:15.973Z,16.77
2023-02-08T18:31:45.839Z,20.07
2023-02-08T18:34:16.233Z,18.53
2023-02-08T18:36:44.684Z,18.73
2023-02-08T18:39:14.361Z,20.83
2023-02-08T18:41:43.276Z,24.50
2023-02-08T18:44:12.007Z,28.63
2023-02-08T18:46:40.564Z,22.90
2023-02-08T18:49:11.281Z,18.90
2023-02-08T18:51:39.820Z,18.77
2023-02-08T18:54:08.234Z,19.10
2023-02-08T18:56:36.700Z,19.70
2023-02-08T18:59:05.158Z,18.13
2023-02-08T19:01:33.554Z,16.30
2023-02-08T19:04:03.439Z,20.43
2023-02-08T19:06:33.395Z,20.20
2023-02-08T19:09:02.561Z,17.23
2023-02-08T19:11:31.789Z,19.37
2023-02-08T19:14:00.733Z,20.73
2023-02-08T19:16:29.223Z,21.77
2023-02-08T19:18:57.737Z,21.63
2023-02-08T19:21:26.217Z,22.00
2023-02-08T19:23:58.134Z,20.13
2023-02-08T19:26:26.844Z,19.50
2023-02-08T19:28:57.152Z,21.50
2023-02-08T19:31:25.792Z,21.60
2023-02-08T19:33:58.745Z,23.40
2023-02-08T19:36:28.334Z,23.17
2023-02-08T19:38:58.277Z,27.67
2023-02-08T19:41:27.332Z,29.83
2023-02-08T19:43:56.075Z,29.40
2023-02-08T19:46:26.006Z,28.53
2023-02-08T19:48:54.873Z,27.67
2023-02-08T19:51:23.709Z,30.10
2023-02-08T19:53:52.342Z,25.23
2023-02-08T19:56:22.200Z,24.97
2023-02-08T19:58:50.665Z,19.27
2023-02-08T20:01:19.608Z,19.80
2023-02-08T20:03:49.373Z,18.20
2023-02-08T20:06:17.932Z,14.70
2023-02-08T20:08:46.276Z,16.37
2023-02-08T20:11:18.693Z,17.33
2023-02-08T20:13:48.698Z,17.07
2023-02-08T20:16:17.348Z,13.80
2023-02-08T20:18:45.981Z,15.00
2023-02-08T20:21:14.819Z,12.07
2023-02-08T20:23:43.897Z,13.73
2023-02-08T20:26:14.717Z,13.43
2023-02-08T20:28:44.456Z,12.80
2023-02-08T20:31:14.724Z,14.73
2023-02-08T20:33:43.390Z,15.00
2023-02-08T20:36:12.249Z,13.53
2023-02-08T20:38:40.753Z,15.27
2023-02-08T20:41:09.782Z,14.77
2023-02-08T20:43:38.272Z,11.83
2023-02-08T20:46:07.025Z,10.70
2023-02-08T20:48:36.800Z,15.23
2023-02-08T20:51:05.876Z,11.10
2023-02-08T20:53:34.503Z,12.37
2023-02-08T20:56:06.251Z,12.47
2023-02-08T20:58:35.048Z,9.10
2023-02-08T21:01:04.354Z,10.60
2023-02-08T21:03:32.898Z,11.80
2023-02-08T21:06:03.035Z,10.83
2023-02-08T21:08:31.403Z,11.70
2023-02-08T21:11:03.120Z,10.63
2023-02-08T21:13:31.616Z,12.17
2023-02-08T21:16:00.199Z,14.03
2023-02-08T21:18:28.701Z,9.90
2023-02-08T21:20:57.881Z,12.27
2023-02-08T21:23:27.823Z,12.57
2023-02-08T21:25:56.328Z,12.40
2023-02-08T21:28:24.742Z,11.47
2023-02-08T21:30:56.845Z,11.10
2023-02-08T21:33:25.602Z,9.03
2023-02-08T21:35:54.222Z,11.43
2023-02-08T21:38:22.707Z,11.53
2023-02-08T21:40:52.398Z,10.40
2023-02-08T21:43:20.972Z,10.13
2023-02-08T21:45:49.408Z,11.37
2023-02-08T21:48:17.801Z,10.67
2023-02-08T21:51:03.920Z,10.07
2023-02-08T21:53:49.909Z,10.97
2023-02-08T21:56:19.566Z,12.27
2023-02-08T21:58:47.869Z,11.77
2023-02-08T22:01:16.507Z,10.13
2023-02-08T22:03:44.921Z,11.73
2023-02-08T22:06:13.513Z,8.40
2023-02-08T22:08:41.984Z,12.47
2023-02-08T22:11:10.420Z,12.83
2023-02-08T22:13:40.305Z,11.80
2023-02-08T22:16:09.370Z,10.53
2023-02-08T22:18:41.248Z,14.93
2023-02-08T22:21:09.803Z,12.63
2023-02-08T22:23:38.194Z,10.27
2023-02-08T22:26:09.405Z,12.80
2023-02-08T22:28:37.716Z,13.50
2023-02-08T22:31:07.668Z,11.50
2023-02-08T22:33:36.110Z,15.17
2023-02-08T22:36:07.623Z,12.07
2023-02-08T22:38:36.042Z,11.43
2023-02-08T22:41:04.600Z,12.90
2023-02-08T22:43:33.277Z,13.50
2023-02-08T22:46:01.815Z,11.10
2023-02-08T22:48:35.043Z,16.10
2023-02-08T22:51:06.691Z,14.53
2023-02-08T22:53:35.234Z,13.67
2023-02-08T22:56:03.616Z,13.87
2023-02-08T22:58:32.173Z,14.70
2023-02-08T23:01:00.645Z,13.43
2023-02-08T23:03:36.740Z,14.20
2023-02-08T23:06:06.050Z,10.07
2023-02-08T23:08:34.366Z,14.13
2023-02-08T23:11:02.987Z,13.93
2023-02-08T23:13:31.532Z,15.13
2023-02-08T23:16:00.225Z,11.23
2023-02-08T23:18:28.758Z,14.67
2023-02-08T23:20:58.460Z,11.97
2023-02-08T23:23:27.007Z,12.10
2023-02-08T23:25:55.518Z,11.17
2023-02-08T23:28:24.255Z,16.23
2023-02-08T23:30:52.751Z,13.37
2023-02-08T23:33:21.242Z,12.37
2023-02-08T23:35:53.408Z,13.77
2023-02-08T23:38:26.092Z,13.80
2023-02-08T23:40:54.652Z,13.73
2023-02-08T23:43:23.053Z,14.77
2023-02-08T23:45:51.704Z,14.70
2023-02-08T23:48:20.110Z,12.80
2023-02-08T23:50:48.469Z,14.70
2023-02-08T23:53:16.888Z,14.37
2023-02-08T23:55:46.772Z,15.77
2023-02-08T23:58:15.076Z,13.10
